sensor_id;sensor_type;location;lat;lon;timestamp;P1;durP1;ratioP1;P2;durP2;ratioP2
70420;SDS011;57848;51.938;15.520;2023-11-21T00:00:27;9.33;;;2.30;;
70420;SDS011;57848;51.938;15.520;2023-11-21T00:02:53;6.07;;;2.20;;
70420;SDS011;57848;51.938;15.520;2023-11-21T00:05:18;6.05;;;2.03;;
70420;SDS011;57848;51.938;15.520;2023-11-21T00:07:44;7.23;;;2.00;;
70420;SDS011;57848;51.938;15.520;2023-11-21T00:10:09;5.77;;;2.30;;
70420;SDS011;57848;51.938;15.520;2023-11-21T00:12:36;6.35;;;2.22;;
70420;SDS011;57848;51.938;15.520;2023-11-21T00:15:02;6.63;;;2.53;;
70420;SDS011;57848;51.938;15.520;2023-11-21T00:17:30;7.30;;;2.13;;
70420;SDS011;57848;51.938;15.520;2023-11-21T00:19:55;6.28;;;2.20;;
70420;SDS011;57848;51.938;15.520;2023-11-21T00:22:21;8.20;;;2.50;;
70420;SDS011;57848;51.938;15.520;2023-11-21T00:24:46;8.40;;;2.40;;
70420;SDS011;57848;51.938;15.520;2023-11-21T00:27:12;6.90;;;2.05;;
70420;SDS011;57848;51.938;15.520;2023-11-21T00:29:38;5.83;;;2.13;;
70420;SDS011;57848;51.938;15.520;2023-11-21T00:32:04;7.27;;;2.17;;
70420;SDS011;57848;51.938;15.520;2023-11-21T00:34:31;6.85;;;2.00;;
70420;SDS011;57848;51.938;15.520;2023-11-21T00:36:56;5.65;;;2.00;;
70420;SDS011;57848;51.938;15.520;2023-11-21T00:39:22;7.23;;;2.30;;
70420;SDS011;57848;51.938;15.520;2023-11-21T00:41:47;6.88;;;2.00;;
70420;SDS011;57848;51.938;15.520;2023-11-21T00:44:13;7.27;;;2.20;;
70420;SDS011;57848;51.938;15.520;2023-11-21T00:46:39;6.07;;;2.13;;
70420;SDS011;57848;51.938;15.520;2023-11-21T00:49:04;6.07;;;1.95;;
70420;SDS011;57848;51.938;15.520;2023-11-21T00:51:30;5.70;;;1.80;;
70420;SDS011;57848;51.938;15.520;2023-11-21T00:53:55;7.90;;;1.90;;
70420;SDS011;57848;51.938;15.520;2023-11-21T00:56:21;6.33;;;1.90;;
70420;SDS011;57848;51.938;15.520;2023-11-21T00:58:47;5.23;;;1.60;;
70420;SDS011;57848;51.938;15.520;2023-11-21T01:01:15;6.30;;;1.77;;
70420;SDS011;57848;51.938;15.520;2023-11-21T01:03:41;7.10;;;1.85;;
70420;SDS011;57848;51.938;15.520;2023-11-21T01:06:06;6.57;;;1.87;;
70420;SDS011;57848;51.938;15.520;2023-11-21T01:08:32;7.90;;;1.85;;
70420;SDS011;57848;51.938;15.520;2023-11-21T01:10:57;7.40;;;1.80;;
70420;SDS011;57848;51.938;15.520;2023-11-21T01:13:23;5.93;;;1.33;;
70420;SDS011;57848;51.938;15.520;2023-11-21T01:15:48;5.20;;;1.60;;
70420;SDS011;57848;51.938;15.520;2023-11-21T01:18:14;5.80;;;1.40;;
70420;SDS011;57848;51.938;15.520;2023-11-21T01:20:39;5.83;;;1.30;;
70420;SDS011;57848;51.938;15.520;2023-11-21T01:23:05;4.97;;;1.25;;
70420;SDS011;57848;51.938;15.520;2023-11-21T01:25:30;5.20;;;1.43;;
70420;SDS011;57848;51.938;15.520;2023-11-21T01:27:56;5.40;;;1.40;;
70420;SDS011;57848;51.938;15.520;2023-11-21T01:30:21;4.88;;;1.23;;
70420;SDS011;57848;51.938;15.520;2023-11-21T01:32:47;4.80;;;1.40;;
70420;SDS011;57848;51.938;15.520;2023-11-21T01:35:12;6.53;;;1.50;;
70420;SDS011;57848;51.938;15.520;2023-11-21T01:37:38;5.73;;;1.40;;
70420;SDS011;57848;51.938;15.520;2023-11-21T01:40:04;6.90;;;1.63;;
70420;SDS011;57848;51.938;15.520;2023-11-21T01:42:35;5.50;;;1.27;;
70420;SDS011;57848;51.938;15.520;2023-11-21T01:45:01;4.43;;;1.10;;
70420;SDS011;57848;51.938;15.520;2023-11-21T01:47:30;5.95;;;1.42;;
70420;SDS011;57848;51.938;15.520;2023-11-21T01:49:57;5.27;;;1.20;;
70420;SDS011;57848;51.938;15.520;2023-11-21T01:52:23;4.78;;;1.52;;
70420;SDS011;57848;51.938;15.520;2023-11-21T01:54:49;5.35;;;1.30;;
70420;SDS011;57848;51.938;15.520;2023-11-21T01:57:15;5.10;;;1.08;;
70420;SDS011;57848;51.938;15.520;2023-11-21T01:59:41;4.50;;;1.47;;
70420;SDS011;57848;51.938;15.520;2023-11-21T02:02:07;4.65;;;1.30;;
70420;SDS011;57848;51.938;15.520;2023-11-21T02:04:35;5.03;;;1.20;;
70420;SDS011;57848;51.938;15.520;2023-11-21T02:07:02;4.13;;;0.93;;
70420;SDS011;57848;51.938;15.520;2023-11-21T02:09:31;5.68;;;1.00;;
70420;SDS011;57848;51.938;15.520;2023-11-21T02:12:00;5.80;;;1.08;;
70420;SDS011;57848;51.938;15.520;2023-11-21T02:14:28;4.03;;;1.10;;
70420;SDS011;57848;51.938;15.520;2023-11-21T02:16:54;4.75;;;1.25;;
70420;SDS011;57848;51.938;15.520;2023-11-21T02:19:22;3.83;;;0.80;;
70420;SDS011;57848;51.938;15.520;2023-11-21T02:21:53;3.47;;;0.90;;
70420;SDS011;57848;51.938;15.520;2023-11-21T02:24:22;4.60;;;1.15;;
70420;SDS011;57848;51.938;15.520;2023-11-21T02:26:49;4.05;;;0.90;;
70420;SDS011;57848;51.938;15.520;2023-11-21T02:29:19;6.95;;;1.27;;
70420;SDS011;57848;51.938;15.520;2023-11-21T02:31:53;4.83;;;1.10;;
70420;SDS011;57848;51.938;15.520;2023-11-21T02:34:20;5.10;;;1.27;;
70420;SDS011;57848;51.938;15.520;2023-11-21T02:36:47;4.20;;;1.10;;
70420;SDS011;57848;51.938;15.520;2023-11-21T02:39:16;4.60;;;1.00;;
70420;SDS011;57848;51.938;15.520;2023-11-21T02:41:42;4.75;;;1.13;;
70420;SDS011;57848;51.938;15.520;2023-11-21T02:44:09;4.40;;;1.00;;
70420;SDS011;57848;51.938;15.520;2023-11-21T02:46:35;4.70;;;1.15;;
70420;SDS011;57848;51.938;15.520;2023-11-21T02:49:02;4.53;;;1.08;;
70420;SDS011;57848;51.938;15.520;2023-11-21T02:51:28;4.68;;;1.15;;
70420;SDS011;57848;51.938;15.520;2023-11-21T02:53:53;5.00;;;1.30;;
70420;SDS011;57848;51.938;15.520;2023-11-21T02:56:19;3.90;;;0.95;;
70420;SDS011;57848;51.938;15.520;2023-11-21T02:58:45;6.20;;;1.40;;
70420;SDS011;57848;51.938;15.520;2023-11-21T03:01:10;4.43;;;1.17;;
70420;SDS011;57848;51.938;15.520;2023-11-21T03:03:36;4.32;;;0.90;;
70420;SDS011;57848;51.938;15.520;2023-11-21T03:06:05;4.10;;;1.15;;
70420;SDS011;57848;51.938;15.520;2023-11-21T03:08:31;4.43;;;1.00;;
70420;SDS011;57848;51.938;15.520;2023-11-21T03:10:57;4.57;;;1.10;;
70420;SDS011;57848;51.938;15.520;2023-11-21T03:13:23;4.47;;;1.38;;
70420;SDS011;57848;51.938;15.520;2023-11-21T03:15:49;5.00;;;1.50;;
70420;SDS011;57848;51.938;15.520;2023-11-21T03:18:14;5.55;;;1.40;;
70420;SDS011;57848;51.938;15.520;2023-11-21T03:20:40;4.53;;;0.93;;
70420;SDS011;57848;51.938;15.520;2023-11-21T03:23:06;4.65;;;1.20;;
70420;SDS011;57848;51.938;15.520;2023-11-21T03:25:32;3.50;;;0.93;;
70420;SDS011;57848;51.938;15.520;2023-11-21T03:27:57;4.03;;;1.10;;
70420;SDS011;57848;51.938;15.520;2023-11-21T03:30:23;4.90;;;1.23;;
70420;SDS011;57848;51.938;15.520;2023-11-21T03:32:48;4.43;;;1.13;;
70420;SDS011;57848;51.938;15.520;2023-11-21T03:35:13;4.30;;;1.10;;
70420;SDS011;57848;51.938;15.520;2023-11-21T03:37:39;4.00;;;1.00;;
70420;SDS011;57848;51.938;15.520;2023-11-21T03:40:06;4.70;;;1.20;;
70420;SDS011;57848;51.938;15.520;2023-11-21T03:42:34;4.53;;;1.30;;
70420;SDS011;57848;51.938;15.520;2023-11-21T03:44:59;7.40;;;1.40;;
70420;SDS011;57848;51.938;15.520;2023-11-21T03:47:26;4.17;;;1.03;;
70420;SDS011;57848;51.938;15.520;2023-11-21T03:49:52;4.60;;;1.17;;
70420;SDS011;57848;51.938;15.520;2023-11-21T03:52:18;5.77;;;1.40;;
70420;SDS011;57848;51.938;15.520;2023-11-21T03:54:43;5.00;;;1.47;;
70420;SDS011;57848;51.938;15.520;2023-11-21T03:57:09;4.05;;;1.30;;
70420;SDS011;57848;51.938;15.520;2023-11-21T03:59:35;4.90;;;1.20;;
70420;SDS011;57848;51.938;15.520;2023-11-21T04:02:01;5.57;;;1.58;;
70420;SDS011;57848;51.938;15.520;2023-11-21T04:04:26;5.47;;;1.60;;
70420;SDS011;57848;51.938;15.520;2023-11-21T04:06:51;5.00;;;1.10;;
70420;SDS011;57848;51.938;15.520;2023-11-21T04:09:17;4.67;;;1.40;;
70420;SDS011;57848;51.938;15.520;2023-11-21T04:11:42;5.80;;;1.00;;
70420;SDS011;57848;51.938;15.520;2023-11-21T04:14:10;5.85;;;0.95;;
70420;SDS011;57848;51.938;15.520;2023-11-21T04:16:36;4.83;;;1.30;;
70420;SDS011;57848;51.938;15.520;2023-11-21T04:19:01;4.00;;;1.03;;
70420;SDS011;57848;51.938;15.520;2023-11-21T04:21:26;5.37;;;1.40;;
70420;SDS011;57848;51.938;15.520;2023-11-21T04:23:52;4.60;;;1.20;;
70420;SDS011;57848;51.938;15.520;2023-11-21T04:26:17;3.53;;;0.90;;
70420;SDS011;57848;51.938;15.520;2023-11-21T04:28:43;4.53;;;1.10;;
70420;SDS011;57848;51.938;15.520;2023-11-21T04:31:08;4.60;;;1.30;;
70420;SDS011;57848;51.938;15.520;2023-11-21T04:33:33;4.93;;;1.50;;
70420;SDS011;57848;51.938;15.520;2023-11-21T04:35:59;5.53;;;1.35;;
70420;SDS011;57848;51.938;15.520;2023-11-21T04:38:24;5.10;;;1.27;;
70420;SDS011;57848;51.938;15.520;2023-11-21T04:40:50;5.20;;;1.63;;
70420;SDS011;57848;51.938;15.520;2023-11-21T04:43:15;4.83;;;1.40;;
70420;SDS011;57848;51.938;15.520;2023-11-21T04:45:40;6.13;;;1.80;;
70420;SDS011;57848;51.938;15.520;2023-11-21T04:48:06;6.40;;;1.52;;
70420;SDS011;57848;51.938;15.520;2023-11-21T04:50:33;4.78;;;1.48;;
70420;SDS011;57848;51.938;15.520;2023-11-21T04:52:59;5.40;;;1.57;;
70420;SDS011;57848;51.938;15.520;2023-11-21T04:55:24;6.43;;;1.70;;
70420;SDS011;57848;51.938;15.520;2023-11-21T04:57:53;5.70;;;2.13;;
70420;SDS011;57848;51.938;15.520;2023-11-21T05:00:18;5.65;;;1.85;;
70420;SDS011;57848;51.938;15.520;2023-11-21T05:02:45;5.70;;;1.70;;
70420;SDS011;57848;51.938;15.520;2023-11-21T05:05:10;5.00;;;1.70;;
70420;SDS011;57848;51.938;15.520;2023-11-21T05:07:36;5.30;;;1.63;;
70420;SDS011;57848;51.938;15.520;2023-11-21T05:10:01;4.78;;;1.33;;
70420;SDS011;57848;51.938;15.520;2023-11-21T05:12:30;5.30;;;1.77;;
70420;SDS011;57848;51.938;15.520;2023-11-21T05:14:58;5.10;;;1.60;;
70420;SDS011;57848;51.938;15.520;2023-11-21T05:17:23;5.40;;;1.70;;
70420;SDS011;57848;51.938;15.520;2023-11-21T05:19:49;12.07;;;2.20;;
70420;SDS011;57848;51.938;15.520;2023-11-21T05:22:14;6.23;;;2.00;;
70420;SDS011;57848;51.938;15.520;2023-11-21T05:24:39;5.63;;;1.93;;
70420;SDS011;57848;51.938;15.520;2023-11-21T05:27:05;7.57;;;1.80;;
70420;SDS011;57848;51.938;15.520;2023-11-21T05:29:30;6.17;;;2.23;;
70420;SDS011;57848;51.938;15.520;2023-11-21T05:31:56;5.85;;;1.95;;
70420;SDS011;57848;51.938;15.520;2023-11-21T05:34:21;5.83;;;2.10;;
70420;SDS011;57848;51.938;15.520;2023-11-21T05:36:49;6.03;;;2.00;;
70420;SDS011;57848;51.938;15.520;2023-11-21T05:39:15;28.30;;;3.00;;
70420;SDS011;57848;51.938;15.520;2023-11-21T05:41:42;34.30;;;3.70;;
70420;SDS011;57848;51.938;15.520;2023-11-21T05:44:08;11.07;;;3.72;;
70420;SDS011;57848;51.938;15.520;2023-11-21T05:46:34;46.45;;;5.55;;
70420;SDS011;57848;51.938;15.520;2023-11-21T05:48:59;61.90;;;5.70;;
70420;SDS011;57848;51.938;15.520;2023-11-21T05:51:25;26.83;;;4.70;;
70420;SDS011;57848;51.938;15.520;2023-11-21T05:53:50;42.10;;;6.00;;
70420;SDS011;57848;51.938;15.520;2023-11-21T05:56:16;21.33;;;5.30;;
70420;SDS011;57848;51.938;15.520;2023-11-21T05:58:42;27.93;;;6.03;;
70420;SDS011;57848;51.938;15.520;2023-11-21T06:01:07;71.40;;;7.30;;
70420;SDS011;57848;51.938;15.520;2023-11-21T06:03:34;114.77;;;9.47;;
70420;SDS011;57848;51.938;15.520;2023-11-21T06:05:59;32.17;;;5.95;;
70420;SDS011;57848;51.938;15.520;2023-11-21T06:08:25;17.33;;;5.87;;
70420;SDS011;57848;51.938;15.520;2023-11-21T06:10:50;12.63;;;5.70;;
70420;SDS011;57848;51.938;15.520;2023-11-21T06:13:16;14.35;;;5.40;;
70420;SDS011;57848;51.938;15.520;2023-11-21T06:15:41;26.07;;;6.90;;
70420;SDS011;57848;51.938;15.520;2023-11-21T06:18:07;17.87;;;6.23;;
70420;SDS011;57848;51.938;15.520;2023-11-21T06:20:35;32.10;;;6.87;;
70420;SDS011;57848;51.938;15.520;2023-11-21T06:23:02;22.02;;;6.35;;
70420;SDS011;57848;51.938;15.520;2023-11-21T06:25:28;31.60;;;7.38;;
70420;SDS011;57848;51.938;15.520;2023-11-21T06:27:54;18.00;;;7.05;;
70420;SDS011;57848;51.938;15.520;2023-11-21T06:30:26;15.80;;;6.53;;
70420;SDS011;57848;51.938;15.520;2023-11-21T06:32:55;21.52;;;10.18;;
70420;SDS011;57848;51.938;15.520;2023-11-21T06:35:21;17.00;;;9.30;;
70420;SDS011;57848;51.938;15.520;2023-11-21T06:37:46;13.75;;;6.05;;
70420;SDS011;57848;51.938;15.520;2023-11-21T06:40:16;17.90;;;6.88;;
70420;SDS011;57848;51.938;15.520;2023-11-21T06:42:43;16.00;;;6.40;;
70420;SDS011;57848;51.938;15.520;2023-11-21T06:45:09;21.23;;;10.52;;
70420;SDS011;57848;51.938;15.520;2023-11-21T06:47:36;18.15;;;7.78;;
70420;SDS011;57848;51.938;15.520;2023-11-21T06:50:01;14.43;;;5.17;;
70420;SDS011;57848;51.938;15.520;2023-11-21T06:52:27;14.70;;;6.65;;
70420;SDS011;57848;51.938;15.520;2023-11-21T06:54:52;14.17;;;5.07;;
70420;SDS011;57848;51.938;15.520;2023-11-21T06:57:18;13.00;;;5.13;;
70420;SDS011;57848;51.938;15.520;2023-11-21T06:59:43;14.33;;;5.57;;
70420;SDS011;57848;51.938;15.520;2023-11-21T07:02:09;10.25;;;4.30;;
70420;SDS011;57848;51.938;15.520;2023-11-21T07:04:35;9.33;;;3.90;;
70420;SDS011;57848;51.938;15.520;2023-11-21T07:07:01;9.80;;;4.00;;
70420;SDS011;57848;51.938;15.520;2023-11-21T07:09:27;11.35;;;4.43;;
70420;SDS011;57848;51.938;15.520;2023-11-21T07:11:53;11.93;;;4.77;;
70420;SDS011;57848;51.938;15.520;2023-11-21T07:14:19;9.68;;;4.32;;
70420;SDS011;57848;51.938;15.520;2023-11-21T07:16:45;11.53;;;4.47;;
70420;SDS011;57848;51.938;15.520;2023-11-21T07:19:11;13.65;;;5.75;;
70420;SDS011;57848;51.938;15.520;2023-11-21T07:21:37;8.77;;;3.53;;
70420;SDS011;57848;51.938;15.520;2023-11-21T07:24:04;10.65;;;4.10;;
70420;SDS011;57848;51.938;15.520;2023-11-21T07:26:31;10.93;;;4.10;;
70420;SDS011;57848;51.938;15.520;2023-11-21T07:28:58;11.65;;;4.28;;
70420;SDS011;57848;51.938;15.520;2023-11-21T07:31:23;12.13;;;5.18;;
70420;SDS011;57848;51.938;15.520;2023-11-21T07:33:49;17.20;;;6.77;;
70420;SDS011;57848;51.938;15.520;2023-11-21T07:36:16;15.93;;;6.68;;
70420;SDS011;57848;51.938;15.520;2023-11-21T07:38:46;12.70;;;5.20;;
70420;SDS011;57848;51.938;15.520;2023-11-21T07:41:12;14.90;;;5.63;;
70420;SDS011;57848;51.938;15.520;2023-11-21T07:43:41;12.30;;;5.18;;
70420;SDS011;57848;51.938;15.520;2023-11-21T07:46:07;12.68;;;5.38;;
70420;SDS011;57848;51.938;15.520;2023-11-21T07:48:35;14.50;;;5.10;;
70420;SDS011;57848;51.938;15.520;2023-11-21T07:51:02;13.60;;;6.43;;
70420;SDS011;57848;51.938;15.520;2023-11-21T07:53:30;15.45;;;6.93;;
70420;SDS011;57848;51.938;15.520;2023-11-21T07:55:56;21.25;;;6.45;;
70420;SDS011;57848;51.938;15.520;2023-11-21T07:58:23;15.13;;;5.23;;
70420;SDS011;57848;51.938;15.520;2023-11-21T08:00:49;15.55;;;6.72;;
70420;SDS011;57848;51.938;15.520;2023-11-21T08:03:15;14.88;;;6.22;;
70420;SDS011;57848;51.938;15.520;2023-11-21T08:05:41;12.57;;;4.70;;
70420;SDS011;57848;51.938;15.520;2023-11-21T08:08:06;10.90;;;4.50;;
70420;SDS011;57848;51.938;15.520;2023-11-21T08:10:32;10.13;;;3.33;;
70420;SDS011;57848;51.938;15.520;2023-11-21T08:12:58;8.27;;;3.20;;
70420;SDS011;57848;51.938;15.520;2023-11-21T08:15:23;9.77;;;2.83;;
70420;SDS011;57848;51.938;15.520;2023-11-21T08:17:49;8.20;;;3.13;;
70420;SDS011;57848;51.938;15.520;2023-11-21T08:20:14;10.00;;;2.83;;
70420;SDS011;57848;51.938;15.520;2023-11-21T08:22:41;8.20;;;3.00;;
70420;SDS011;57848;51.938;15.520;2023-11-21T08:25:07;8.98;;;3.30;;
70420;SDS011;57848;51.938;15.520;2023-11-21T08:27:33;7.93;;;3.10;;
70420;SDS011;57848;51.938;15.520;2023-11-21T08:30:00;7.15;;;2.67;;
70420;SDS011;57848;51.938;15.520;2023-11-21T08:32:29;8.02;;;3.10;;
70420;SDS011;57848;51.938;15.520;2023-11-21T08:34:58;6.67;;;1.83;;
70420;SDS011;57848;51.938;15.520;2023-11-21T08:37:24;7.00;;;2.08;;
70420;SDS011;57848;51.938;15.520;2023-11-21T08:39:50;7.03;;;2.13;;
70420;SDS011;57848;51.938;15.520;2023-11-21T08:42:18;6.53;;;2.22;;
70420;SDS011;57848;51.938;15.520;2023-11-21T08:44:43;8.73;;;2.67;;
70420;SDS011;57848;51.938;15.520;2023-11-21T08:47:09;6.60;;;2.63;;
70420;SDS011;57848;51.938;15.520;2023-11-21T08:49:34;8.88;;;3.30;;
70420;SDS011;57848;51.938;15.520;2023-11-21T08:51:59;8.27;;;3.10;;
70420;SDS011;57848;51.938;15.520;2023-11-21T08:54:25;6.70;;;2.47;;
70420;SDS011;57848;51.938;15.520;2023-11-21T08:56:54;9.75;;;3.33;;
70420;SDS011;57848;51.938;15.520;2023-11-21T08:59:20;10.00;;;3.67;;
70420;SDS011;57848;51.938;15.520;2023-11-21T09:01:46;9.50;;;4.50;;
70420;SDS011;57848;51.938;15.520;2023-11-21T09:04:12;9.97;;;3.93;;
70420;SDS011;57848;51.938;15.520;2023-11-21T09:06:38;11.45;;;4.50;;
70420;SDS011;57848;51.938;15.520;2023-11-21T09:09:05;10.07;;;4.20;;
70420;SDS011;57848;51.938;15.520;2023-11-21T09:11:33;12.03;;;5.47;;
70420;SDS011;57848;51.938;15.520;2023-11-21T09:13:59;14.40;;;7.97;;
70420;SDS011;57848;51.938;15.520;2023-11-21T09:16:25;11.75;;;5.75;;
70420;SDS011;57848;51.938;15.520;2023-11-21T09:18:50;11.57;;;5.33;;
70420;SDS011;57848;51.938;15.520;2023-11-21T09:21:16;13.52;;;5.75;;
70420;SDS011;57848;51.938;15.520;2023-11-21T09:23:42;12.97;;;5.97;;
70420;SDS011;57848;51.938;15.520;2023-11-21T09:26:09;9.85;;;4.30;;
70420;SDS011;57848;51.938;15.520;2023-11-21T09:28:35;12.03;;;4.57;;
70420;SDS011;57848;51.938;15.520;2023-11-21T09:31:06;10.60;;;4.13;;
70420;SDS011;57848;51.938;15.520;2023-11-21T09:33:34;10.10;;;4.20;;
70420;SDS011;57848;51.938;15.520;2023-11-21T09:35:59;9.80;;;4.03;;
70420;SDS011;57848;51.938;15.520;2023-11-21T09:38:25;9.73;;;4.50;;
70420;SDS011;57848;51.938;15.520;2023-11-21T09:40:50;11.57;;;5.50;;
70420;SDS011;57848;51.938;15.520;2023-11-21T09:43:17;9.77;;;4.43;;
70420;SDS011;57848;51.938;15.520;2023-11-21T09:45:47;11.48;;;5.25;;
70420;SDS011;57848;51.938;15.520;2023-11-21T09:48:14;11.70;;;5.68;;
70420;SDS011;57848;51.938;15.520;2023-11-21T09:50:42;13.75;;;5.90;;
70420;SDS011;57848;51.938;15.520;2023-11-21T09:53:13;13.30;;;6.75;;
70420;SDS011;57848;51.938;15.520;2023-11-21T09:55:43;13.90;;;6.60;;
70420;SDS011;57848;51.938;15.520;2023-11-21T09:58:10;12.20;;;5.55;;
70420;SDS011;57848;51.938;15.520;2023-11-21T10:00:43;11.15;;;5.32;;
70420;SDS011;57848;51.938;15.520;2023-11-21T10:03:12;12.10;;;5.47;;
70420;SDS011;57848;51.938;15.520;2023-11-21T10:05:39;13.93;;;6.47;;
70420;SDS011;57848;51.938;15.520;2023-11-21T10:08:10;12.37;;;6.27;;
70420;SDS011;57848;51.938;15.520;2023-11-21T10:10:37;14.15;;;7.07;;
70420;SDS011;57848;51.938;15.520;2023-11-21T10:13:04;13.63;;;6.68;;
70420;SDS011;57848;51.938;15.520;2023-11-21T10:15:35;16.90;;;8.20;;
70420;SDS011;57848;51.938;15.520;2023-11-21T10:18:04;16.83;;;8.50;;
70420;SDS011;57848;51.938;15.520;2023-11-21T10:20:32;17.93;;;8.67;;
70420;SDS011;57848;51.938;15.520;2023-11-21T10:22:59;17.05;;;8.27;;
70420;SDS011;57848;51.938;15.520;2023-11-21T10:25:26;18.85;;;9.13;;
70420;SDS011;57848;51.938;15.520;2023-11-21T10:27:55;17.27;;;8.67;;
70420;SDS011;57848;51.938;15.520;2023-11-21T10:30:22;16.33;;;7.47;;
70420;SDS011;57848;51.938;15.520;2023-11-21T10:32:56;14.80;;;6.82;;
70420;SDS011;57848;51.938;15.520;2023-11-21T10:35:24;16.98;;;7.60;;
70420;SDS011;57848;51.938;15.520;2023-11-21T10:37:50;16.73;;;7.67;;
70420;SDS011;57848;51.938;15.520;2023-11-21T10:40:27;21.25;;;10.20;;
70420;SDS011;57848;51.938;15.520;2023-11-21T10:42:54;21.00;;;9.87;;
70420;SDS011;57848;51.938;15.520;2023-11-21T10:45:19;17.40;;;8.32;;
70420;SDS011;57848;51.938;15.520;2023-11-21T10:47:47;17.80;;;7.53;;
70420;SDS011;57848;51.938;15.520;2023-11-21T10:50:18;18.23;;;9.10;;
70420;SDS011;57848;51.938;15.520;2023-11-21T10:52:44;14.20;;;6.60;;
70420;SDS011;57848;51.938;15.520;2023-11-21T10:55:19;15.25;;;6.85;;
70420;SDS011;57848;51.938;15.520;2023-11-21T10:57:51;18.95;;;8.05;;
70420;SDS011;57848;51.938;15.520;2023-11-21T11:00:18;15.93;;;7.07;;
70420;SDS011;57848;51.938;15.520;2023-11-21T11:02:50;16.42;;;7.05;;
70420;SDS011;57848;51.938;15.520;2023-11-21T11:05:19;16.38;;;7.70;;
70420;SDS011;57848;51.938;15.520;2023-11-21T11:07:45;19.17;;;7.88;;
70420;SDS011;57848;51.938;15.520;2023-11-21T11:10:17;15.70;;;7.38;;
70420;SDS011;57848;51.938;15.520;2023-11-21T11:12:46;14.87;;;6.93;;
70420;SDS011;57848;51.938;15.520;2023-11-21T11:15:12;13.95;;;7.10;;
70420;SDS011;57848;51.938;15.520;2023-11-21T11:17:39;14.80;;;7.22;;
70420;SDS011;57848;51.938;15.520;2023-11-21T11:20:05;15.00;;;6.65;;
70420;SDS011;57848;51.938;15.520;2023-11-21T11:22:48;15.48;;;7.53;;
70420;SDS011;57848;51.938;15.520;2023-11-21T11:28:15;12.75;;;5.88;;
70420;SDS011;57848;51.938;15.520;2023-11-21T11:30:52;16.85;;;8.32;;
70420;SDS011;57848;51.938;15.520;2023-11-21T11:33:41;16.40;;;7.78;;
70420;SDS011;57848;51.938;15.520;2023-11-21T11:36:32;19.90;;;8.57;;
70420;SDS011;57848;51.938;15.520;2023-11-21T11:39:28;18.07;;;8.10;;
70420;SDS011;57848;51.938;15.520;2023-11-21T11:42:01;27.13;;;12.65;;
70420;SDS011;57848;51.938;15.520;2023-11-21T11:47:15;24.33;;;11.18;;
70420;SDS011;57848;51.938;15.520;2023-11-21T11:49:57;27.48;;;13.48;;
70420;SDS011;57848;51.938;15.520;2023-11-21T11:52:32;24.77;;;9.73;;
70420;SDS011;57848;51.938;15.520;2023-11-21T11:54:59;27.13;;;11.50;;
70420;SDS011;57848;51.938;15.520;2023-11-21T11:57:25;23.90;;;11.00;;
70420;SDS011;57848;51.938;15.520;2023-11-21T12:02:37;20.93;;;10.67;;
70420;SDS011;57848;51.938;15.520;2023-11-21T12:05:14;21.42;;;10.70;;
70420;SDS011;57848;51.938;15.520;2023-11-21T12:10:23;18.58;;;9.93;;
70420;SDS011;57848;51.938;15.520;2023-11-21T12:12:54;22.08;;;9.85;;
70420;SDS011;57848;51.938;15.520;2023-11-21T12:15:21;21.50;;;10.10;;
70420;SDS011;57848;51.938;15.520;2023-11-21T12:17:48;18.92;;;10.32;;
70420;SDS011;57848;51.938;15.520;2023-11-21T12:20:14;22.13;;;11.35;;
70420;SDS011;57848;51.938;15.520;2023-11-21T12:22:46;20.05;;;9.27;;
70420;SDS011;57848;51.938;15.520;2023-11-21T12:25:19;21.73;;;10.65;;
70420;SDS011;57848;51.938;15.520;2023-11-21T12:27:49;20.10;;;10.10;;
70420;SDS011;57848;51.938;15.520;2023-11-21T12:30:17;20.05;;;9.75;;
70420;SDS011;57848;51.938;15.520;2023-11-21T12:32:44;18.20;;;8.30;;
70420;SDS011;57848;51.938;15.520;2023-11-21T12:35:12;16.95;;;9.23;;
70420;SDS011;57848;51.938;15.520;2023-11-21T12:37:38;17.87;;;9.00;;
70420;SDS011;57848;51.938;15.520;2023-11-21T12:40:05;19.92;;;9.43;;
70420;SDS011;57848;51.938;15.520;2023-11-21T12:42:33;15.50;;;7.63;;
70420;SDS011;57848;51.938;15.520;2023-11-21T12:45:09;16.00;;;7.43;;
70420;SDS011;57848;51.938;15.520;2023-11-21T12:47:43;14.10;;;6.90;;
70420;SDS011;57848;51.938;15.520;2023-11-21T12:50:10;17.63;;;8.82;;
70420;SDS011;57848;51.938;15.520;2023-11-21T12:52:42;19.60;;;9.55;;
70420;SDS011;57848;51.938;15.520;2023-11-21T12:55:18;16.88;;;7.90;;
70420;SDS011;57848;51.938;15.520;2023-11-21T12:57:51;16.75;;;7.65;;
70420;SDS011;57848;51.938;15.520;2023-11-21T13:00:33;17.60;;;8.30;;
70420;SDS011;57848;51.938;15.520;2023-11-21T13:03:03;16.77;;;7.20;;
70420;SDS011;57848;51.938;15.520;2023-11-21T13:05:32;15.25;;;7.53;;
70420;SDS011;57848;51.938;15.520;2023-11-21T13:08:03;18.55;;;8.40;;
70420;SDS011;57848;51.938;15.520;2023-11-21T13:10:32;18.88;;;9.43;;
70420;SDS011;57848;51.938;15.520;2023-11-21T13:13:01;15.27;;;7.43;;
70420;SDS011;57848;51.938;15.520;2023-11-21T13:15:30;16.77;;;8.45;;
70420;SDS011;57848;51.938;15.520;2023-11-21T13:17:57;19.88;;;9.05;;
70420;SDS011;57848;51.938;15.520;2023-11-21T13:20:23;19.05;;;8.20;;
70420;SDS011;57848;51.938;15.520;2023-11-21T13:22:51;16.80;;;8.23;;
70420;SDS011;57848;51.938;15.520;2023-11-21T13:25:27;18.75;;;9.00;;
70420;SDS011;57848;51.938;15.520;2023-11-21T13:27:53;24.33;;;11.80;;
70420;SDS011;57848;51.938;15.520;2023-11-21T13:30:19;17.33;;;8.65;;
70420;SDS011;57848;51.938;15.520;2023-11-21T13:32:51;22.10;;;10.43;;
70420;SDS011;57848;51.938;15.520;2023-11-21T13:35:17;25.23;;;10.03;;
70420;SDS011;57848;51.938;15.520;2023-11-21T13:37:46;22.10;;;9.82;;
70420;SDS011;57848;51.938;15.520;2023-11-21T13:40:14;21.90;;;11.00;;
70420;SDS011;57848;51.938;15.520;2023-11-21T13:42:45;25.90;;;11.73;;
70420;SDS011;57848;51.938;15.520;2023-11-21T13:45:11;25.38;;;12.55;;
70420;SDS011;57848;51.938;15.520;2023-11-21T13:47:37;22.03;;;10.87;;
70420;SDS011;57848;51.938;15.520;2023-11-21T13:50:03;22.42;;;10.75;;
70420;SDS011;57848;51.938;15.520;2023-11-21T13:52:34;20.52;;;10.30;;
70420;SDS011;57848;51.938;15.520;2023-11-21T13:55:01;24.05;;;12.52;;
70420;SDS011;57848;51.938;15.520;2023-11-21T13:57:31;20.38;;;9.85;;
70420;SDS011;57848;51.938;15.520;2023-11-21T13:59:57;20.40;;;9.70;;
70420;SDS011;57848;51.938;15.520;2023-11-21T14:02:23;22.40;;;10.93;;
70420;SDS011;57848;51.938;15.520;2023-11-21T14:04:57;24.23;;;11.30;;
70420;SDS011;57848;51.938;15.520;2023-11-21T14:07:25;22.58;;;10.02;;
70420;SDS011;57848;51.938;15.520;2023-11-21T14:10:11;18.50;;;9.18;;
70420;SDS011;57848;51.938;15.520;2023-11-21T14:12:39;21.73;;;9.80;;
70420;SDS011;57848;51.938;15.520;2023-11-21T14:15:07;22.33;;;10.60;;
70420;SDS011;57848;51.938;15.520;2023-11-21T14:17:35;23.23;;;10.55;;
70420;SDS011;57848;51.938;15.520;2023-11-21T14:20:03;16.23;;;8.52;;
70420;SDS011;57848;51.938;15.520;2023-11-21T14:22:30;17.70;;;8.50;;
70420;SDS011;57848;51.938;15.520;2023-11-21T14:24:56;17.13;;;7.90;;
70420;SDS011;57848;51.938;15.520;2023-11-21T14:27:25;17.00;;;9.15;;
70420;SDS011;57848;51.938;15.520;2023-11-21T14:29:50;14.87;;;6.80;;
70420;SDS011;57848;51.938;15.520;2023-11-21T14:32:16;17.98;;;7.47;;
70420;SDS011;57848;51.938;15.520;2023-11-21T14:34:42;17.02;;;7.93;;
70420;SDS011;57848;51.938;15.520;2023-11-21T14:37:11;17.40;;;7.65;;